sensor_id;sensor_type;location;lat;lon;timestamp;P1;durP1;ratioP1;P2;durP2;ratioP2
36351;SDS011;22382;44.768;17.206;2022-09-09T00:02:20;12.23;;;6.60;;
36351;SDS011;22382;44.768;17.206;2022-09-09T00:04:42;14.10;;;6.97;;
36351;SDS011;22382;44.768;17.206;2022-09-09T00:15:14;10.68;;;6.90;;
36351;SDS011;22382;44.768;17.206;2022-09-09T00:20:28;13.32;;;6.20;;
36351;SDS011;22382;44.768;17.206;2022-09-09T00:23:10;10.63;;;6.57;;
36351;SDS011;22382;44.768;17.206;2022-09-09T00:28:43;10.60;;;5.80;;
36351;SDS011;22382;44.768;17.206;2022-09-09T00:31:32;13.13;;;6.25;;
36351;SDS011;22382;44.768;17.206;2022-09-09T00:36:48;10.52;;;6.38;;
36351;SDS011;22382;44.768;17.206;2022-09-09T00:41:51;14.65;;;7.35;;
36351;SDS011;22382;44.768;17.206;2022-09-09T00:44:35;17.27;;;7.05;;
36351;SDS011;22382;44.768;17.206;2022-09-09T00:57:37;16.25;;;8.95;;
36351;SDS011;22382;44.768;17.206;2022-09-09T01:08:03;16.08;;;7.00;;
36351;SDS011;22382;44.768;17.206;2022-09-09T01:10:52;11.10;;;7.10;;
36351;SDS011;22382;44.768;17.206;2022-09-09T01:13:24;15.95;;;6.25;;
36351;SDS011;22382;44.768;17.206;2022-09-09T01:15:53;8.98;;;4.22;;
36351;SDS011;22382;44.768;17.206;2022-09-09T01:18:27;10.50;;;4.88;;
36351;SDS011;22382;44.768;17.206;2022-09-09T01:26:39;10.35;;;4.20;;
36351;SDS011;22382;44.768;17.206;2022-09-09T01:29:12;12.75;;;3.78;;
36351;SDS011;22382;44.768;17.206;2022-09-09T01:32:00;10.18;;;4.88;;
36351;SDS011;22382;44.768;17.206;2022-09-09T01:34:31;7.43;;;3.83;;
36351;SDS011;22382;44.768;17.206;2022-09-09T01:37:07;9.43;;;4.50;;
36351;SDS011;22382;44.768;17.206;2022-09-09T01:39:37;8.52;;;4.32;;
36351;SDS011;22382;44.768;17.206;2022-09-09T01:42:06;17.20;;;5.45;;
36351;SDS011;22382;44.768;17.206;2022-09-09T01:44:36;10.82;;;4.50;;
36351;SDS011;22382;44.768;17.206;2022-09-09T01:47:04;10.70;;;5.00;;
36351;SDS011;22382;44.768;17.206;2022-09-09T01:49:32;9.98;;;4.50;;
36351;SDS011;22382;44.768;17.206;2022-09-09T01:51:59;7.88;;;4.05;;
36351;SDS011;22382;44.768;17.206;2022-09-09T01:54:28;8.90;;;4.55;;
36351;SDS011;22382;44.768;17.206;2022-09-09T02:04:52;5.25;;;3.20;;
36351;SDS011;22382;44.768;17.206;2022-09-09T02:10:23;7.05;;;3.00;;
36351;SDS011;22382;44.768;17.206;2022-09-09T02:13:02;6.95;;;3.40;;
36351;SDS011;22382;44.768;17.206;2022-09-09T02:18:07;8.15;;;4.10;;
36351;SDS011;22382;44.768;17.206;2022-09-09T02:20:36;9.15;;;3.95;;
36351;SDS011;22382;44.768;17.206;2022-09-09T02:23:05;9.00;;;3.65;;
36351;SDS011;22382;44.768;17.206;2022-09-09T02:25:35;7.60;;;3.88;;
36351;SDS011;22382;44.768;17.206;2022-09-09T02:28:04;8.50;;;3.63;;
36351;SDS011;22382;44.768;17.206;2022-09-09T02:30:35;7.95;;;3.40;;
36351;SDS011;22382;44.768;17.206;2022-09-09T02:33:05;8.52;;;3.70;;
36351;SDS011;22382;44.768;17.206;2022-09-09T02:35:36;8.18;;;3.88;;
36351;SDS011;22382;44.768;17.206;2022-09-09T02:38:08;9.20;;;3.45;;
36351;SDS011;22382;44.768;17.206;2022-09-09T02:40:38;9.75;;;3.80;;
36351;SDS011;22382;44.768;17.206;2022-09-09T02:43:05;5.78;;;3.47;;
36351;SDS011;22382;44.768;17.206;2022-09-09T02:45:43;7.22;;;2.83;;
36351;SDS011;22382;44.768;17.206;2022-09-09T02:48:30;7.97;;;3.10;;
36351;SDS011;22382;44.768;17.206;2022-09-09T02:51:04;7.38;;;2.67;;
36351;SDS011;22382;44.768;17.206;2022-09-09T02:56:23;6.40;;;2.83;;
36351;SDS011;22382;44.768;17.206;2022-09-09T02:58:54;7.07;;;2.50;;
36351;SDS011;22382;44.768;17.206;2022-09-09T03:01:21;4.65;;;2.25;;
36351;SDS011;22382;44.768;17.206;2022-09-09T03:03:48;7.78;;;3.08;;
36351;SDS011;22382;44.768;17.206;2022-09-09T03:06:15;7.80;;;3.40;;
36351;SDS011;22382;44.768;17.206;2022-09-09T03:08:42;6.82;;;2.90;;
36351;SDS011;22382;44.768;17.206;2022-09-09T03:11:15;5.85;;;2.47;;
36351;SDS011;22382;44.768;17.206;2022-09-09T03:13:43;5.82;;;3.20;;
36351;SDS011;22382;44.768;17.206;2022-09-09T03:16:09;6.50;;;2.88;;
36351;SDS011;22382;44.768;17.206;2022-09-09T03:18:37;6.63;;;3.03;;
36351;SDS011;22382;44.768;17.206;2022-09-09T03:21:03;6.30;;;2.95;;
36351;SDS011;22382;44.768;17.206;2022-09-09T03:23:30;6.18;;;2.72;;
36351;SDS011;22382;44.768;17.206;2022-09-09T03:25:57;6.10;;;3.17;;
36351;SDS011;22382;44.768;17.206;2022-09-09T03:28:24;5.85;;;2.78;;
36351;SDS011;22382;44.768;17.206;2022-09-09T03:30:58;6.47;;;3.08;;
36351;SDS011;22382;44.768;17.206;2022-09-09T03:33:30;8.43;;;2.88;;
36351;SDS011;22382;44.768;17.206;2022-09-09T03:35:57;6.75;;;2.97;;
36351;SDS011;22382;44.768;17.206;2022-09-09T03:38:24;6.15;;;3.30;;
36351;SDS011;22382;44.768;17.206;2022-09-09T03:40:52;10.52;;;3.78;;
36351;SDS011;22382;44.768;17.206;2022-09-09T03:43:27;6.95;;;3.22;;
36351;SDS011;22382;44.768;17.206;2022-09-09T03:45:55;5.78;;;3.38;;
36351;SDS011;22382;44.768;17.206;2022-09-09T03:48:26;5.72;;;3.05;;
36351;SDS011;22382;44.768;17.206;2022-09-09T03:50:54;7.75;;;3.45;;
36351;SDS011;22382;44.768;17.206;2022-09-09T03:53:27;5.18;;;3.20;;
36351;SDS011;22382;44.768;17.206;2022-09-09T03:55:55;5.65;;;2.90;;
36351;SDS011;22382;44.768;17.206;2022-09-09T03:58:26;6.85;;;3.17;;
36351;SDS011;22382;44.768;17.206;2022-09-09T04:03:26;6.57;;;3.00;;
36351;SDS011;22382;44.768;17.206;2022-09-09T04:05:54;6.35;;;3.25;;
36351;SDS011;22382;44.768;17.206;2022-09-09T04:08:22;6.32;;;3.75;;
36351;SDS011;22382;44.768;17.206;2022-09-09T04:10:53;8.40;;;4.07;;
36351;SDS011;22382;44.768;17.206;2022-09-09T04:13:23;7.40;;;3.53;;
36351;SDS011;22382;44.768;17.206;2022-09-09T04:15:55;6.63;;;3.22;;
36351;SDS011;22382;44.768;17.206;2022-09-09T04:18:24;6.40;;;3.40;;
36351;SDS011;22382;44.768;17.206;2022-09-09T04:20:52;5.68;;;3.38;;
36351;SDS011;22382;44.768;17.206;2022-09-09T04:23:19;7.50;;;3.30;;
36351;SDS011;22382;44.768;17.206;2022-09-09T04:25:47;5.15;;;3.60;;
36351;SDS011;22382;44.768;17.206;2022-09-09T04:28:16;8.98;;;3.20;;
36351;SDS011;22382;44.768;17.206;2022-09-09T04:30:44;6.97;;;3.35;;
36351;SDS011;22382;44.768;17.206;2022-09-09T04:33:12;6.50;;;3.55;;
36351;SDS011;22382;44.768;17.206;2022-09-09T04:35:46;7.13;;;3.10;;
36351;SDS011;22382;44.768;17.206;2022-09-09T04:38:15;7.50;;;3.58;;
36351;SDS011;22382;44.768;17.206;2022-09-09T04:40:43;6.55;;;3.33;;
36351;SDS011;22382;44.768;17.206;2022-09-09T04:43:13;5.93;;;3.33;;
36351;SDS011;22382;44.768;17.206;2022-09-09T04:45:46;6.13;;;3.42;;
36351;SDS011;22382;44.768;17.206;2022-09-09T04:48:14;8.20;;;4.20;;
36351;SDS011;22382;44.768;17.206;2022-09-09T04:50:41;5.70;;;3.40;;
36351;SDS011;22382;44.768;17.206;2022-09-09T04:53:08;5.88;;;3.30;;
36351;SDS011;22382;44.768;17.206;2022-09-09T04:55:35;9.48;;;3.75;;
36351;SDS011;22382;44.768;17.206;2022-09-09T04:58:03;6.60;;;3.30;;
36351;SDS011;22382;44.768;17.206;2022-09-09T05:00:34;6.05;;;3.10;;
36351;SDS011;22382;44.768;17.206;2022-09-09T05:03:05;7.50;;;3.65;;
36351;SDS011;22382;44.768;17.206;2022-09-09T05:08:05;7.05;;;3.47;;
36351;SDS011;22382;44.768;17.206;2022-09-09T05:10:35;5.57;;;3.15;;
36351;SDS011;22382;44.768;17.206;2022-09-09T05:13:04;6.10;;;3.17;;
36351;SDS011;22382;44.768;17.206;2022-09-09T05:15:32;7.05;;;3.25;;
36351;SDS011;22382;44.768;17.206;2022-09-09T05:18:00;7.55;;;3.30;;
36351;SDS011;22382;44.768;17.206;2022-09-09T05:20:28;6.95;;;3.30;;
36351;SDS011;22382;44.768;17.206;2022-09-09T05:22:56;7.97;;;3.40;;
36351;SDS011;22382;44.768;17.206;2022-09-09T05:25:23;5.70;;;3.75;;
36351;SDS011;22382;44.768;17.206;2022-09-09T05:27:53;8.60;;;3.83;;
36351;SDS011;22382;44.768;17.206;2022-09-09T05:30:20;8.02;;;3.40;;
36351;SDS011;22382;44.768;17.206;2022-09-09T05:32:49;6.32;;;3.78;;
36351;SDS011;22382;44.768;17.206;2022-09-09T05:35:16;8.85;;;3.58;;
36351;SDS011;22382;44.768;17.206;2022-09-09T05:37:45;11.93;;;4.18;;
36351;SDS011;22382;44.768;17.206;2022-09-09T05:40:12;7.85;;;3.95;;
36351;SDS011;22382;44.768;17.206;2022-09-09T05:42:39;10.05;;;3.85;;
36351;SDS011;22382;44.768;17.206;2022-09-09T05:45:07;8.35;;;4.10;;
36351;SDS011;22382;44.768;17.206;2022-09-09T05:47:35;5.43;;;3.63;;
36351;SDS011;22382;44.768;17.206;2022-09-09T05:50:03;5.35;;;3.88;;
36351;SDS011;22382;44.768;17.206;2022-09-09T05:52:31;8.63;;;5.10;;
36351;SDS011;22382;44.768;17.206;2022-09-09T05:54:58;11.15;;;6.75;;
36351;SDS011;22382;44.768;17.206;2022-09-09T05:57:26;6.63;;;4.65;;
36351;SDS011;22382;44.768;17.206;2022-09-09T05:59:53;9.25;;;3.88;;
36351;SDS011;22382;44.768;17.206;2022-09-09T06:02:20;6.82;;;4.43;;
36351;SDS011;22382;44.768;17.206;2022-09-09T06:04:47;8.52;;;3.97;;
36351;SDS011;22382;44.768;17.206;2022-09-09T06:07:14;5.10;;;3.22;;
36351;SDS011;22382;44.768;17.206;2022-09-09T06:09:41;11.50;;;6.53;;
36351;SDS011;22382;44.768;17.206;2022-09-09T06:12:08;7.60;;;4.82;;
36351;SDS011;22382;44.768;17.206;2022-09-09T06:14:35;7.13;;;3.38;;
36351;SDS011;22382;44.768;17.206;2022-09-09T06:17:03;6.20;;;3.33;;
36351;SDS011;22382;44.768;17.206;2022-09-09T06:19:30;10.07;;;5.85;;
36351;SDS011;22382;44.768;17.206;2022-09-09T06:21:57;8.07;;;4.47;;
36351;SDS011;22382;44.768;17.206;2022-09-09T06:24:24;7.88;;;3.67;;
36351;SDS011;22382;44.768;17.206;2022-09-09T06:26:51;6.85;;;3.72;;
36351;SDS011;22382;44.768;17.206;2022-09-09T06:29:20;9.15;;;3.85;;
36351;SDS011;22382;44.768;17.206;2022-09-09T06:31:47;7.13;;;3.42;;
36351;SDS011;22382;44.768;17.206;2022-09-09T06:34:14;8.82;;;4.65;;
36351;SDS011;22382;44.768;17.206;2022-09-09T06:36:41;7.03;;;3.97;;
36351;SDS011;22382;44.768;17.206;2022-09-09T06:39:08;11.23;;;3.53;;
36351;SDS011;22382;44.768;17.206;2022-09-09T06:41:40;7.87;;;4.00;;
36351;SDS011;22382;44.768;17.206;2022-09-09T06:44:09;6.35;;;3.53;;
36351;SDS011;22382;44.768;17.206;2022-09-09T06:46:38;10.73;;;3.20;;
36351;SDS011;22382;44.768;17.206;2022-09-09T06:49:07;5.20;;;2.33;;
36351;SDS011;22382;44.768;17.206;2022-09-09T06:51:35;5.15;;;2.20;;
36351;SDS011;22382;44.768;17.206;2022-09-09T06:54:09;5.90;;;2.17;;
36351;SDS011;22382;44.768;17.206;2022-09-09T06:56:38;6.72;;;2.13;;
36351;SDS011;22382;44.768;17.206;2022-09-09T07:01:38;7.40;;;2.40;;
36351;SDS011;22382;44.768;17.206;2022-09-09T07:04:20;8.05;;;2.50;;
36351;SDS011;22382;44.768;17.206;2022-09-09T07:06:47;4.47;;;2.20;;
36351;SDS011;22382;44.768;17.206;2022-09-09T07:09:15;6.63;;;2.90;;
36351;SDS011;22382;44.768;17.206;2022-09-09T07:11:48;4.60;;;2.90;;
36351;SDS011;22382;44.768;17.206;2022-09-09T07:14:19;6.00;;;2.50;;
36351;SDS011;22382;44.768;17.206;2022-09-09T07:16:46;5.43;;;2.83;;
36351;SDS011;22382;44.768;17.206;2022-09-09T07:19:13;6.97;;;2.40;;
36351;SDS011;22382;44.768;17.206;2022-09-09T07:21:41;4.95;;;2.33;;
36351;SDS011;22382;44.768;17.206;2022-09-09T07:24:10;5.22;;;2.50;;
36351;SDS011;22382;44.768;17.206;2022-09-09T07:26:39;5.15;;;2.50;;
36351;SDS011;22382;44.768;17.206;2022-09-09T07:29:07;7.43;;;2.90;;
36351;SDS011;22382;44.768;17.206;2022-09-09T07:31:35;4.45;;;2.55;;
36351;SDS011;22382;44.768;17.206;2022-09-09T07:34:04;9.98;;;3.00;;
36351;SDS011;22382;44.768;17.206;2022-09-09T07:36:32;7.15;;;2.85;;
36351;SDS011;22382;44.768;17.206;2022-09-09T07:39:03;8.52;;;2.58;;
36351;SDS011;22382;44.768;17.206;2022-09-09T07:41:33;6.63;;;3.00;;
36351;SDS011;22382;44.768;17.206;2022-09-09T07:44:10;8.60;;;3.20;;
36351;SDS011;22382;44.768;17.206;2022-09-09T07:46:39;6.72;;;2.63;;
36351;SDS011;22382;44.768;17.206;2022-09-09T07:49:06;4.47;;;2.38;;
36351;SDS011;22382;44.768;17.206;2022-09-09T07:51:36;5.85;;;3.08;;
36351;SDS011;22382;44.768;17.206;2022-09-09T07:54:11;5.85;;;2.47;;
36351;SDS011;22382;44.768;17.206;2022-09-09T07:56:40;7.07;;;2.85;;
36351;SDS011;22382;44.768;17.206;2022-09-09T07:59:08;8.20;;;3.20;;
36351;SDS011;22382;44.768;17.206;2022-09-09T08:01:37;5.72;;;2.70;;
36351;SDS011;22382;44.768;17.206;2022-09-09T08:04:10;4.70;;;3.05;;
36351;SDS011;22382;44.768;17.206;2022-09-09T08:06:42;7.88;;;3.10;;
36351;SDS011;22382;44.768;17.206;2022-09-09T08:09:25;5.85;;;2.90;;
36351;SDS011;22382;44.768;17.206;2022-09-09T08:11:55;12.40;;;3.92;;
36351;SDS011;22382;44.768;17.206;2022-09-09T08:14:23;10.43;;;3.47;;
36351;SDS011;22382;44.768;17.206;2022-09-09T08:16:50;7.22;;;3.80;;
36351;SDS011;22382;44.768;17.206;2022-09-09T08:19:20;11.10;;;3.65;;
36351;SDS011;22382;44.768;17.206;2022-09-09T08:21:47;8.98;;;4.03;;
36351;SDS011;22382;44.768;17.206;2022-09-09T08:24:15;9.80;;;4.32;;
36351;SDS011;22382;44.768;17.206;2022-09-09T08:26:43;9.18;;;3.63;;
36351;SDS011;22382;44.768;17.206;2022-09-09T08:29:12;8.80;;;4.03;;
36351;SDS011;22382;44.768;17.206;2022-09-09T08:34:11;9.43;;;4.13;;
36351;SDS011;22382;44.768;17.206;2022-09-09T08:36:39;9.75;;;3.80;;
36351;SDS011;22382;44.768;17.206;2022-09-09T08:39:09;11.07;;;4.57;;
36351;SDS011;22382;44.768;17.206;2022-09-09T08:50:22;16.73;;;5.97;;
36351;SDS011;22382;44.768;17.206;2022-09-09T08:55:48;10.68;;;4.38;;
36351;SDS011;22382;44.768;17.206;2022-09-09T08:58:19;13.48;;;5.60;;
36351;SDS011;22382;44.768;17.206;2022-09-09T09:01:00;10.57;;;4.88;;
36351;SDS011;22382;44.768;17.206;2022-09-09T09:03:43;7.80;;;4.13;;
36351;SDS011;22382;44.768;17.206;2022-09-09T09:09:01;10.00;;;4.68;;
36351;SDS011;22382;44.768;17.206;2022-09-09T09:11:38;10.75;;;4.78;;
36351;SDS011;22382;44.768;17.206;2022-09-09T09:14:11;10.15;;;5.40;;
36351;SDS011;22382;44.768;17.206;2022-09-09T09:16:53;13.63;;;4.57;;
36351;SDS011;22382;44.768;17.206;2022-09-09T09:19:51;10.50;;;4.45;;
36351;SDS011;22382;44.768;17.206;2022-09-09T09:28:13;5.95;;;3.22;;
36351;SDS011;22382;44.768;17.206;2022-09-09T09:36:12;8.25;;;3.67;;
36351;SDS011;22382;44.768;17.206;2022-09-09T09:38:53;11.27;;;3.55;;
36351;SDS011;22382;44.768;17.206;2022-09-09T09:41:50;7.82;;;3.38;;
36351;SDS011;22382;44.768;17.206;2022-09-09T09:44:36;5.97;;;3.50;;
36351;SDS011;22382;44.768;17.206;2022-09-09T09:47:13;9.07;;;3.47;;
36351;SDS011;22382;44.768;17.206;2022-09-09T09:49:52;8.48;;;3.35;;
36351;SDS011;22382;44.768;17.206;2022-09-09T09:52:30;7.75;;;3.88;;
36351;SDS011;22382;44.768;17.206;2022-09-09T09:55:12;7.50;;;3.08;;
36351;SDS011;22382;44.768;17.206;2022-09-09T09:57:40;6.97;;;2.50;;
36351;SDS011;22382;44.768;17.206;2022-09-09T10:00:17;5.20;;;2.72;;
36351;SDS011;22382;44.768;17.206;2022-09-09T10:02:49;7.90;;;3.50;;
36351;SDS011;22382;44.768;17.206;2022-09-09T10:05:38;5.75;;;3.25;;
36351;SDS011;22382;44.768;17.206;2022-09-09T10:08:13;6.57;;;2.55;;
36351;SDS011;22382;44.768;17.206;2022-09-09T10:10:57;6.85;;;2.13;;
36351;SDS011;22382;44.768;17.206;2022-09-09T10:13:41;6.82;;;2.33;;
36351;SDS011;22382;44.768;17.206;2022-09-09T10:18:58;8.63;;;2.50;;
36351;SDS011;22382;44.768;17.206;2022-09-09T10:27:24;8.00;;;2.70;;
36351;SDS011;22382;44.768;17.206;2022-09-09T10:48:46;5.80;;;1.90;;
36351;SDS011;22382;44.768;17.206;2022-09-09T11:00:05;3.25;;;1.85;;
36351;SDS011;22382;44.768;17.206;2022-09-09T11:02:41;5.43;;;1.60;;
36351;SDS011;22382;44.768;17.206;2022-09-09T11:08:00;5.28;;;1.70;;
36351;SDS011;22382;44.768;17.206;2022-09-09T11:13:17;4.25;;;1.20;;
36351;SDS011;22382;44.768;17.206;2022-09-09T11:15:53;3.72;;;1.80;;
36351;SDS011;22382;44.768;17.206;2022-09-09T11:18:39;6.50;;;2.90;;
36351;SDS011;22382;44.768;17.206;2022-09-09T11:21:12;4.35;;;2.00;;
36351;SDS011;22382;44.768;17.206;2022-09-09T11:23:50;4.20;;;1.50;;
36351;SDS011;22382;44.768;17.206;2022-09-09T11:27:02;4.47;;;1.55;;
36351;SDS011;22382;44.768;17.206;2022-09-09T11:35:24;6.53;;;2.85;;
36351;SDS011;22382;44.768;17.206;2022-09-09T11:40:44;5.07;;;2.75;;
36351;SDS011;22382;44.768;17.206;2022-09-09T11:43:15;7.80;;;2.80;;
36351;SDS011;22382;44.768;17.206;2022-09-09T11:45:52;6.22;;;2.30;;
36351;SDS011;22382;44.768;17.206;2022-09-09T11:51:08;4.90;;;2.05;;
36351;SDS011;22382;44.768;17.206;2022-09-09T11:56:34;5.18;;;2.53;;
36351;SDS011;22382;44.768;17.206;2022-09-09T12:04:35;7.55;;;2.80;;
36351;SDS011;22382;44.768;17.206;2022-09-09T12:17:43;6.10;;;2.58;;
36351;SDS011;22382;44.768;17.206;2022-09-09T12:25:52;5.80;;;2.28;;
36351;SDS011;22382;44.768;17.206;2022-09-09T12:34:47;4.63;;;2.42;;
36351;SDS011;22382;44.768;17.206;2022-09-09T12:39:53;5.97;;;2.47;;
36351;SDS011;22382;44.768;17.206;2022-09-09T12:42:22;5.18;;;2.47;;
36351;SDS011;22382;44.768;17.206;2022-09-09T12:44:51;4.53;;;2.00;;
36351;SDS011;22382;44.768;17.206;2022-09-09T12:52:52;6.23;;;2.10;;
36351;SDS011;22382;44.768;17.206;2022-09-09T12:55:24;5.28;;;2.50;;
36351;SDS011;22382;44.768;17.206;2022-09-09T12:57:56;8.50;;;2.20;;
36351;SDS011;22382;44.768;17.206;2022-09-09T13:00:25;6.50;;;2.40;;
36351;SDS011;22382;44.768;17.206;2022-09-09T13:02:54;3.78;;;2.30;;
36351;SDS011;22382;44.768;17.206;2022-09-09T13:05:24;4.07;;;2.35;;
36351;SDS011;22382;44.768;17.206;2022-09-09T13:08:00;4.82;;;2.50;;
36351;SDS011;22382;44.768;17.206;2022-09-09T13:10:29;4.40;;;1.98;;
36351;SDS011;22382;44.768;17.206;2022-09-09T13:13:19;6.90;;;2.58;;
36351;SDS011;22382;44.768;17.206;2022-09-09T13:15:52;7.60;;;2.60;;
36351;SDS011;22382;44.768;17.206;2022-09-09T13:18:42;5.38;;;2.40;;
36351;SDS011;22382;44.768;17.206;2022-09-09T13:21:08;5.32;;;2.60;;
36351;SDS011;22382;44.768;17.206;2022-09-09T13:23:36;8.27;;;2.40;;
36351;SDS011;22382;44.768;17.206;2022-09-09T13:26:38;5.15;;;2.25;;
36351;SDS011;22382;44.768;17.206;2022-09-09T13:29:16;8.30;;;2.50;;
36351;SDS011;22382;44.768;17.206;2022-09-09T13:31:45;5.80;;;2.50;;
36351;SDS011;22382;44.768;17.206;2022-09-09T13:34:34;5.65;;;2.35;;
36351;SDS011;22382;44.768;17.206;2022-09-09T13:37:05;6.22;;;2.53;;
36351;SDS011;22382;44.768;17.206;2022-09-09T13:39:50;4.35;;;2.30;;
36351;SDS011;22382;44.768;17.206;2022-09-09T13:42:28;5.57;;;2.63;;
36351;SDS011;22382;44.768;17.206;2022-09-09T13:44:57;7.38;;;2.65;;
36351;SDS011;22382;44.768;17.206;2022-09-09T13:47:33;4.75;;;2.17;;
36351;SDS011;22382;44.768;17.206;2022-09-09T13:52:50;8.63;;;2.58;;
36351;SDS011;22382;44.768;17.206;2022-09-09T13:55:22;7.38;;;3.00;;
36351;SDS011;22382;44.768;17.206;2022-09-09T13:58:00;7.32;;;2.80;;
36351;SDS011;22382;44.768;17.206;2022-09-09T14:00:29;6.95;;;3.03;;
36351;SDS011;22382;44.768;17.206;2022-09-09T14:02:57;6.88;;;2.80;;
36351;SDS011;22382;44.768;17.206;2022-09-09T14:05:27;8.27;;;3.58;;
36351;SDS011;22382;44.768;17.206;2022-09-09T14:07:55;9.88;;;4.03;;
36351;SDS011;22382;44.768;17.206;2022-09-09T14:10:24;8.80;;;3.83;;
36351;SDS011;22382;44.768;17.206;2022-09-09T14:12:51;9.40;;;4.07;;
36351;SDS011;22382;44.768;17.206;2022-09-09T14:15:19;8.65;;;4.05;;
36351;SDS011;22382;44.768;17.206;2022-09-09T14:17:46;8.77;;;4.07;;
36351;SDS011;22382;44.768;17.206;2022-09-09T14:20:15;7.60;;;3.33;;
36351;SDS011;22382;44.768;17.206;2022-09-09T14:22:43;6.80;;;3.30;;
36351;SDS011;22382;44.768;17.206;2022-09-09T14:25:10;7.50;;;3.08;;
36351;SDS011;22382;44.768;17.206;2022-09-09T14:27:39;7.97;;;3.55;;
36351;SDS011;22382;44.768;17.206;2022-09-09T14:30:07;6.43;;;3.03;;
36351;SDS011;22382;44.768;17.206;2022-09-09T14:32:34;9.82;;;3.65;;
36351;SDS011;22382;44.768;17.206;2022-09-09T14:35:01;6.60;;;3.45;;
36351;SDS011;22382;44.768;17.206;2022-09-09T14:37:28;7.85;;;3.40;;
36351;SDS011;22382;44.768;17.206;2022-09-09T14:39:57;7.03;;;3.33;;
36351;SDS011;22382;44.768;17.206;2022-09-09T14:42:24;5.30;;;3.72;;
36351;SDS011;22382;44.768;17.206;2022-09-09T14:44:52;6.88;;;3.30;;
36351;SDS011;22382;44.768;17.206;2022-09-09T14:47:19;8.45;;;3.95;;
36351;SDS011;22382;44.768;17.206;2022-09-09T14:49:46;7.55;;;4.22;;
36351;SDS011;22382;44.768;17.206;2022-09-09T14:52:15;6.15;;;3.42;;
36351;SDS011;22382;44.768;17.206;2022-09-09T14:54:42;5.38;;;3.47;;
36351;SDS011;22382;44.768;17.206;2022-09-09T14:57:09;9.05;;;3.60;;
36351;SDS011;22382;44.768;17.206;2022-09-09T14:59:36;8.88;;;2.83;;
36351;SDS011;22382;44.768;17.206;2022-09-09T15:02:03;3.80;;;1.60;;
36351;SDS011;22382;44.768;17.206;2022-09-09T15:04:30;5.40;;;1.95;;
36351;SDS011;22382;44.768;17.206;2022-09-09T15:06:58;3.10;;;0.93;;
36351;SDS011;22382;44.768;17.206;2022-09-09T15:09:25;4.28;;;1.85;;
36351;SDS011;22382;44.768;17.206;2022-09-09T15:11:52;3.30;;;1.13;;
36351;SDS011;22382;44.768;17.206;2022-09-09T15:14:19;3.20;;;1.35;;
36351;SDS011;22382;44.768;17.206;2022-09-09T15:16:49;4.05;;;1.63;;
36351;SDS011;22382;44.768;17.206;2022-09-09T15:19:15;3.05;;;1.52;;
36351;SDS011;22382;44.768;17.206;2022-09-09T15:21:42;6.00;;;1.85;;
36351;SDS011;22382;44.768;17.206;2022-09-09T15:24:09;6.60;;;2.53;;
36351;SDS011;22382;44.768;17.206;2022-09-09T15:26:37;4.20;;;1.75;;
36351;SDS011;22382;44.768;17.206;2022-09-09T15:29:07;2.60;;;0.88;;
36351;SDS011;22382;44.768;17.206;2022-09-09T15:31:35;1.58;;;1.00;;
36351;SDS011;22382;44.768;17.206;2022-09-09T15:34:05;4.03;;;1.20;;
36351;SDS011;22382;44.768;17.206;2022-09-09T15:36:37;3.00;;;0.75;;
36351;SDS011;22382;44.768;17.206;2022-09-09T15:39:09;1.98;;;0.90;;
36351;SDS011;22382;44.768;17.206;2022-09-09T15:41:42;2.38;;;1.00;;
36351;SDS011;22382;44.768;17.206;2022-09-09T15:44:12;2.28;;;0.80;;
36351;SDS011;22382;44.768;17.206;2022-09-09T15:46:40;2.42;;;0.82;;
36351;SDS011;22382;44.768;17.206;2022-09-09T15:49:09;2.30;;;0.90;;
36351;SDS011;22382;44.768;17.206;2022-09-09T15:51:42;1.92;;;1.30;;
36351;SDS011;22382;44.768;17.206;2022-09-09T15:54:11;3.17;;;1.05;;
36351;SDS011;22382;44.768;17.206;2022-09-09T15:56:44;2.90;;;1.35;;
36351;SDS011;22382;44.768;17.206;2022-09-09T15:59:14;1.95;;;0.95;;
36351;SDS011;22382;44.768;17.206;2022-09-09T16:01:42;1.92;;;0.95;;
36351;SDS011;22382;44.768;17.206;2022-09-09T16:04:10;2.10;;;0.90;;
36351;SDS011;22382;44.768;17.206;2022-09-09T16:06:38;3.35;;;0.90;;
36351;SDS011;22382;44.768;17.206;2022-09-09T16:09:05;2.75;;;1.40;;
36351;SDS011;22382;44.768;17.206;2022-09-09T16:11:35;4.22;;;1.45;;
36351;SDS011;22382;44.768;17.206;2022-09-09T16:14:03;2.95;;;1.20;;
36351;SDS011;22382;44.768;17.206;2022-09-09T16:16:32;2.60;;;1.85;;
36351;SDS011;22382;44.768;17.206;2022-09-09T16:19:08;3.50;;;1.30;;
36351;SDS011;22382;44.768;17.206;2022-09-09T16:21:42;1.73;;;1.30;;
36351;SDS011;22382;44.768;17.206;2022-09-09T16:24:12;2.97;;;1.65;;
36351;SDS011;22382;44.768;17.206;2022-09-09T16:26:45;3.33;;;1.25;;
36351;SDS011;22382;44.768;17.206;2022-09-09T16:29:14;3.30;;;2.35;;
36351;SDS011;22382;44.768;17.206;2022-09-09T16:31:43;5.00;;;1.83;;
36351;SDS011;22382;44.768;17.206;2022-09-09T16:34:11;3.80;;;1.20;;
36351;SDS011;22382;44.768;17.206;2022-09-09T16:36:39;2.60;;;1.33;;
36351;SDS011;22382;44.768;17.206;2022-09-09T16:39:08;2.20;;;1.15;;
36351;SDS011;22382;44.768;17.206;2022-09-09T16:41:40;4.00;;;1.58;;
36351;SDS011;22382;44.768;17.206;2022-09-09T16:44:10;3.70;;;1.30;;
36351;SDS011;22382;44.768;17.206;2022-09-09T16:46:39;2.33;;;1.23;;
36351;SDS011;22382;44.768;17.206;2022-09-09T16:49:08;2.40;;;1.65;;
36351;SDS011;22382;44.768;17.206;2022-09-09T16:51:47;4.20;;;2.05;;
36351;SDS011;22382;44.768;17.206;2022-09-09T16:54:16;2.80;;;1.55;;
36351;SDS011;22382;44.768;17.206;2022-09-09T16:56:47;5.72;;;1.30;;
36351;SDS011;22382;44.768;17.206;2022-09-09T16:59:15;2.70;;;1.60;;
36351;SDS011;22382;44.768;17.206;2022-09-09T17:01:44;3.70;;;1.88;;
36351;SDS011;22382;44.768;17.206;2022-09-09T17:04:14;8.20;;;3.85;;
36351;SDS011;22382;44.768;17.206;2022-09-09T17:06:47;4.97;;;1.98;;
36351;SDS011;22382;44.768;17.206;2022-09-09T17:09:19;2.58;;;1.70;;
36351;SDS011;22382;44.768;17.206;2022-09-09T17:11:47;5.00;;;2.28;;
36351;SDS011;22382;44.768;17.206;2022-09-09T17:14:17;11.10;;;2.40;;
36351;SDS011;22382;44.768;17.206;2022-09-09T17:16:45;3.33;;;2.20;;
36351;SDS011;22382;44.768;17.206;2022-09-09T17:19:13;3.67;;;2.03;;
36351;SDS011;22382;44.768;17.206;2022-09-09T17:21:40;5.97;;;2.42;;
36351;SDS011;22382;44.768;17.206;2022-09-09T17:24:27;3.40;;;2.50;;
36351;SDS011;22382;44.768;17.206;2022-09-09T17:26:55;4.75;;;2.50;;
36351;SDS011;22382;44.768;17.206;2022-09-09T17:29:25;3.25;;;2.20;;
36351;SDS011;22382;44.768;17.206;2022-09-09T17:31:52;4.38;;;1.88;;
36351;SDS011;22382;44.768;17.206;2022-09-09T17:34:20;3.65;;;2.25;;
36351;SDS011;22382;44.768;17.206;2022-09-09T17:36:47;4.00;;;2.20;;
36351;SDS011;22382;44.768;17.206;2022-09-09T17:39:14;3.03;;;2.28;;
36351;SDS011;22382;44.768;17.206;2022-09-09T17:41:41;4.72;;;2.20;;
36351;SDS011;22382;44.768;17.206;2022-09-09T17:44:08;6.70;;;3.72;;
36351;SDS011;22382;44.768;17.206;2022-09-09T17:46:40;6.05;;;2.65;;
36351;SDS011;22382;44.768;17.206;2022-09-09T17:49:10;5.10;;;3.00;;
36351;SDS011;22382;44.768;17.206;2022-09-09T17:51:41;3.42;;;2.13;;
36351;SDS011;22382;44.768;17.206;2022-09-09T17:54:13;4.25;;;2.63;;
36351;SDS011;22382;44.768;17.206;2022-09-09T17:56:42;6.25;;;3.22;;
36351;SDS011;22382;44.768;17.206;2022-09-09T17:59:11;5.18;;;2.65;;
36351;SDS011;22382;44.768;17.206;2022-09-09T18:01:40;7.38;;;2.58;;
36351;SDS011;22382;44.768;17.206;2022-09-09T18:04:11;3.65;;;2.42;;
36351;SDS011;22382;44.768;17.206;2022-09-09T18:06:43;5.07;;;3.03;;